Terminal Aerodrome Forecast
Issued by NWS

Home | Current Version | Previous Version | Text Only | Print | Product List | Glossary On
Versions: 1 2 3 4 5 6 7 8 9 10 11 12 13 14 15
740
FTUS43 KOAX 271744
TAFBFF
TAF
KBFF 271744Z 2718/2818 09011KT P6SM SCT040
     FM272100 09010KT P6SM VCTS SCT050CB BKN100
      TEMPO 2722/2801 VRB20G30KT 4SM -TSRA BKN060CB
     FM280600 11008KT P6SM BKN060=

USA.gov is the U.S. government's official web portal to all federal, state and local government web resources and services.